createdAt,value
2019-01-18T00:01:30.190Z,7.60
2019-01-18T00:03:59.997Z,7.60
2019-01-18T00:06:29.852Z,7.50
2019-01-18T00:08:59.610Z,7.60
2019-01-18T00:11:29.412Z,7.50
2019-01-18T00:13:59.170Z,7.50
2019-01-18T00:16:29.006Z,7.50
2019-01-18T00:19:00.167Z,7.60
2019-01-18T00:21:29.988Z,7.60
2019-01-18T00:23:59.762Z,7.60
2019-01-18T00:26:29.561Z,7.60
2019-01-18T00:28:59.312Z,7.50
2019-01-18T00:31:28.981Z,7.60
2019-01-18T00:34:00.466Z,7.60
2019-01-18T00:36:30.173Z,7.60
2019-01-18T00:38:59.859Z,7.60
2019-01-18T00:41:29.701Z,7.60
2019-01-18T00:43:59.462Z,7.60
2019-01-18T00:46:29.258Z,7.60
2019-01-18T00:48:59.480Z,7.60
2019-01-18T00:51:29.280Z,7.60
2019-01-18T00:53:59.097Z,7.60
2019-01-18T00:56:28.836Z,7.60
2019-01-18T00:58:58.644Z,7.60
2019-01-18T01:01:28.421Z,7.60
2019-01-18T01:03:58.155Z,7.60
2019-01-18T01:06:27.881Z,7.60
2019-01-18T01:08:57.728Z,7.60
2019-01-18T01:11:27.531Z,7.50
2019-01-18T01:13:57.329Z,7.60
2019-01-18T01:16:27.111Z,7.50
2019-01-18T01:18:56.824Z,7.50
2019-01-18T01:21:26.614Z,7.50
2019-01-18T01:23:56.408Z,7.50
2019-01-18T01:26:26.110Z,7.40
2019-01-18T01:28:55.874Z,7.50
2019-01-18T01:31:25.708Z,7.40
2019-01-18T01:33:55.494Z,7.40
2019-01-18T01:36:26.246Z,7.40
2019-01-18T01:38:56.085Z,7.40
2019-01-18T01:41:25.787Z,7.40
2019-01-18T01:43:55.654Z,7.30
2019-01-18T01:46:25.375Z,7.30
2019-01-18T01:48:55.196Z,7.30
2019-01-18T01:51:24.885Z,7.30
2019-01-18T01:53:54.712Z,7.30
2019-01-18T01:56:24.577Z,7.30
2019-01-18T01:58:54.421Z,7.20
2019-01-18T02:01:24.163Z,7.20
2019-01-18T02:03:53.833Z,7.20
2019-01-18T02:06:23.695Z,7.20
2019-01-18T02:08:53.745Z,7.10
2019-01-18T02:11:23.474Z,7.10
2019-01-18T02:13:53.294Z,7.00
2019-01-18T02:16:23.080Z,7.00
2019-01-18T02:18:52.836Z,7.00
2019-01-18T02:21:22.545Z,6.90
2019-01-18T02:23:52.393Z,6.90
2019-01-18T02:26:22.163Z,6.90
2019-01-18T02:28:51.984Z,6.80
2019-01-18T02:31:21.762Z,6.80
2019-01-18T02:33:51.515Z,6.70
2019-01-18T02:36:23.848Z,6.70
2019-01-18T02:38:54.927Z,6.70
2019-01-18T02:41:24.715Z,6.60
2019-01-18T02:43:54.420Z,6.50
2019-01-18T02:46:24.165Z,6.50
2019-01-18T02:48:53.921Z,6.50
2019-01-18T02:51:23.586Z,6.40
2019-01-18T02:53:55.144Z,6.30
2019-01-18T02:56:24.938Z,6.30
2019-01-18T02:58:54.803Z,6.20
2019-01-18T03:01:24.677Z,6.20
2019-01-18T03:03:54.423Z,6.20
2019-01-18T03:06:24.199Z,6.20
2019-01-18T03:08:56.322Z,6.20
2019-01-18T03:11:26.107Z,6.10
2019-01-18T03:13:55.893Z,6.10
2019-01-18T03:16:25.675Z,6.10
2019-01-18T03:18:55.399Z,6.00
2019-01-18T03:21:25.229Z,6.10
2019-01-18T03:23:54.984Z,6.10
2019-01-18T03:26:24.776Z,6.10
2019-01-18T03:28:54.740Z,6.10
2019-01-18T03:31:24.492Z,6.00
2019-01-18T03:33:54.255Z,6.00
2019-01-18T03:36:24.030Z,5.90
2019-01-18T03:38:53.793Z,5.90
2019-01-18T03:41:23.558Z,5.90
2019-01-18T03:43:53.366Z,5.80
2019-01-18T03:46:23.120Z,5.90
2019-01-18T03:48:52.823Z,5.90
2019-01-18T03:51:22.607Z,5.80
2019-01-18T03:53:52.401Z,5.80
2019-01-18T03:56:22.214Z,5.80
2019-01-18T03:58:51.917Z,5.80
2019-01-18T04:01:21.783Z,5.70
2019-01-18T04:03:53.825Z,5.70
2019-01-18T04:06:23.510Z,5.70
2019-01-18T04:08:53.354Z,5.70
2019-01-18T04:11:23.152Z,5.70
2019-01-18T04:13:52.969Z,5.70
2019-01-18T04:16:23.509Z,5.70
2019-01-18T04:18:53.244Z,5.70
2019-01-18T04:21:25.729Z,5.70
2019-01-18T04:23:55.634Z,5.70
2019-01-18T04:26:25.375Z,5.60
2019-01-18T04:28:56.422Z,5.60
2019-01-18T04:31:27.766Z,5.60
2019-01-18T04:33:57.436Z,5.50
2019-01-18T04:36:27.179Z,5.50
2019-01-18T04:38:57.022Z,5.50
2019-01-18T04:41:26.826Z,5.50
2019-01-18T04:43:56.634Z,5.50
2019-01-18T04:46:26.410Z,5.50
2019-01-18T04:48:56.152Z,5.50
2019-01-18T04:51:25.926Z,5.40
2019-01-18T04:53:55.652Z,5.40
2019-01-18T04:56:26.395Z,5.40
2019-01-18T04:58:56.215Z,5.40
2019-01-18T05:01:25.965Z,5.30
2019-01-18T05:03:56.102Z,5.30
2019-01-18T05:06:25.753Z,5.30
2019-01-18T05:08:55.485Z,5.30
2019-01-18T05:11:25.245Z,5.30
2019-01-18T05:13:55.983Z,5.30
2019-01-18T05:16:25.823Z,5.30
2019-01-18T05:18:55.629Z,5.30
2019-01-18T05:21:25.460Z,5.30
2019-01-18T05:23:55.244Z,5.20
2019-01-18T05:26:25.477Z,5.20
2019-01-18T05:28:55.227Z,5.20
2019-01-18T05:31:25.017Z,5.10
2019-01-18T05:33:55.163Z,5.20
2019-01-18T05:36:24.831Z,5.10
2019-01-18T05:38:54.550Z,5.10
2019-01-18T05:41:24.278Z,5.10
2019-01-18T05:43:54.081Z,5.10
2019-01-18T05:46:24.573Z,5.10
2019-01-18T05:48:54.339Z,5.10
2019-01-18T05:51:24.021Z,5.10
2019-01-18T05:53:53.773Z,5.20
2019-01-18T05:56:23.461Z,5.20
2019-01-18T05:58:53.186Z,5.10
2019-01-18T06:01:22.983Z,5.20
2019-01-18T06:03:52.891Z,5.20
2019-01-18T06:06:22.669Z,5.20
2019-01-18T06:08:52.563Z,5.30
2019-01-18T06:11:22.278Z,5.30
2019-01-18T06:13:52.130Z,5.30
2019-01-18T06:16:21.904Z,5.30
2019-01-18T06:18:51.679Z,5.40
2019-01-18T06:21:21.609Z,5.30
2019-01-18T06:23:51.438Z,5.40
2019-01-18T06:26:21.238Z,5.40
2019-01-18T06:28:51.044Z,5.40
2019-01-18T06:31:21.856Z,5.40
2019-01-18T06:33:51.561Z,5.30
2019-01-18T06:36:21.335Z,5.10
2019-01-18T06:38:51.102Z,5.00
2019-01-18T06:41:36.136Z,4.80
2019-01-18T06:44:06.021Z,4.70
2019-01-18T06:46:35.841Z,4.50
2019-01-18T06:49:06.285Z,4.40
2019-01-18T06:51:36.107Z,4.20
2019-01-18T06:54:05.889Z,4.10
2019-01-18T06:56:35.673Z,3.90
2019-01-18T06:59:05.522Z,3.80
2019-01-18T07:01:35.247Z,3.80
2019-01-18T07:04:05.140Z,3.70
2019-01-18T07:06:34.981Z,3.50
2019-01-18T07:09:07.846Z,3.30
2019-01-18T07:11:37.693Z,3.10
2019-01-18T07:14:07.457Z,2.80
2019-01-18T07:16:37.245Z,2.60
2019-01-18T07:19:06.910Z,2.50
2019-01-18T07:21:36.622Z,2.40
2019-01-18T07:24:06.373Z,2.30
2019-01-18T07:26:36.192Z,2.30
2019-01-18T07:29:05.864Z,2.20
2019-01-18T07:31:35.680Z,2.20
2019-01-18T07:34:05.998Z,2.20
2019-01-18T07:36:35.690Z,2.20
2019-01-18T07:39:08.237Z,2.20
2019-01-18T07:41:38.045Z,2.20
2019-01-18T07:44:07.974Z,2.20
2019-01-18T07:46:37.801Z,2.20
2019-01-18T07:49:07.613Z,2.20
2019-01-18T07:51:37.357Z,2.20
2019-01-18T07:54:07.071Z,2.20
2019-01-18T07:56:36.801Z,2.10
2019-01-18T07:59:06.511Z,2.10
2019-01-18T08:01:36.261Z,2.00
2019-01-18T08:04:06.104Z,2.00
2019-01-18T08:06:35.995Z,2.00
2019-01-18T08:09:09.007Z,2.00
2019-01-18T08:11:38.814Z,1.90
2019-01-18T08:14:08.582Z,1.80
2019-01-18T08:16:38.403Z,1.80
2019-01-18T08:19:08.217Z,1.80
2019-01-18T08:21:38.183Z,1.80
2019-01-18T08:24:07.948Z,1.90
2019-01-18T08:26:37.737Z,1.90
2019-01-18T08:29:07.482Z,2.00
2019-01-18T08:31:37.160Z,2.10
2019-01-18T08:34:06.978Z,2.20
2019-01-18T08:36:36.738Z,2.30
2019-01-18T08:39:08.659Z,2.30
2019-01-18T08:41:38.361Z,2.30
2019-01-18T08:44:08.053Z,2.40
2019-01-18T08:46:38.041Z,2.40
2019-01-18T08:49:07.786Z,2.50
2019-01-18T08:51:37.498Z,2.50
2019-01-18T08:54:07.299Z,2.60
2019-01-18T08:56:37.329Z,2.60
2019-01-18T08:59:07.064Z,2.60
2019-01-18T09:01:36.893Z,2.60
2019-01-18T09:04:06.751Z,2.70
2019-01-18T09:06:36.560Z,2.70
2019-01-18T09:09:09.295Z,2.70
2019-01-18T09:11:39.092Z,2.70
2019-01-18T09:14:08.826Z,2.80
2019-01-18T09:16:38.694Z,2.80
2019-01-18T09:19:10.253Z,2.80
2019-01-18T09:21:39.956Z,2.80
2019-01-18T09:24:09.654Z,2.80
2019-01-18T09:26:39.803Z,2.90
2019-01-18T09:29:10.308Z,2.90
2019-01-18T09:31:42.612Z,2.90
2019-01-18T09:34:11.699Z,3.00
2019-01-18T09:36:41.331Z,3.00
2019-01-18T09:39:11.078Z,3.10
2019-01-18T09:41:40.829Z,3.00
2019-01-18T09:44:10.637Z,3.10
2019-01-18T09:46:40.396Z,3.00
2019-01-18T09:49:10.182Z,3.00
2019-01-18T09:51:40.010Z,2.90
2019-01-18T09:54:09.855Z,3.00
2019-01-18T09:56:39.536Z,3.00
2019-01-18T09:59:09.291Z,2.90
2019-01-18T10:01:39.373Z,2.90
2019-01-18T10:04:09.114Z,2.80
2019-01-18T10:06:41.435Z,2.80
2019-01-18T10:09:11.201Z,2.80
2019-01-18T10:11:41.046Z,2.80
2019-01-18T10:14:10.829Z,2.80
2019-01-18T10:16:40.595Z,2.80
2019-01-18T10:19:10.293Z,2.80
2019-01-18T10:21:40.045Z,2.80
2019-01-18T10:24:09.761Z,2.80
2019-01-18T10:26:39.508Z,2.80
2019-01-18T10:29:09.522Z,2.70
2019-01-18T10:31:39.229Z,2.70
2019-01-18T10:34:08.965Z,2.70
2019-01-18T10:36:39.008Z,2.70
2019-01-18T10:39:10.324Z,2.70
2019-01-18T10:41:45.768Z,2.70
2019-01-18T10:44:11.532Z,2.70
2019-01-18T10:46:41.270Z,2.80
2019-01-18T10:49:10.992Z,2.80
2019-01-18T10:51:43.247Z,2.90
2019-01-18T10:54:13.024Z,2.90
2019-01-18T10:56:42.749Z,2.90
2019-01-18T10:59:13.658Z,2.90
2019-01-18T11:01:43.468Z,2.80
2019-01-18T11:04:13.228Z,2.90
2019-01-18T11:06:43.039Z,2.90
2019-01-18T11:09:12.878Z,3.00
2019-01-18T11:11:42.641Z,3.20
2019-01-18T11:14:12.388Z,3.50
2019-01-18T11:16:42.127Z,4.00
2019-01-18T11:19:11.940Z,4.40
2019-01-18T11:21:43.451Z,4.60
2019-01-18T11:24:13.250Z,5.00
2019-01-18T11:26:43.070Z,5.20
2019-01-18T11:29:12.822Z,5.40
2019-01-18T11:31:42.610Z,5.90
2019-01-18T11:34:12.420Z,6.60
2019-01-18T11:36:42.232Z,7.50
2019-01-18T11:39:11.990Z,8.10
2019-01-18T11:41:41.694Z,8.50
2019-01-18T11:44:11.472Z,8.70
2019-01-18T11:46:41.201Z,9.20
2019-01-18T11:49:10.877Z,9.80
2019-01-18T11:51:40.617Z,9.90
2019-01-18T11:54:11.306Z,9.80
2019-01-18T11:56:41.257Z,9.60
2019-01-18T11:59:10.969Z,9.30
2019-01-18T12:01:40.748Z,9.90
2019-01-18T12:04:10.570Z,10.60
2019-01-18T12:06:40.380Z,11.10
2019-01-18T12:09:10.254Z,10.90
2019-01-18T12:11:40.043Z,10.10
2019-01-18T12:14:09.839Z,9.20
2019-01-18T12:16:39.569Z,8.40
2019-01-18T12:19:09.429Z,7.70
2019-01-18T12:21:39.161Z,7.30
2019-01-18T12:24:08.932Z,6.90
2019-01-18T12:26:38.669Z,6.60
2019-01-18T12:29:08.451Z,6.20
2019-01-18T12:31:39.798Z,6.00
2019-01-18T12:34:09.650Z,5.90
2019-01-18T12:36:39.437Z,5.70
2019-01-18T12:39:11.454Z,5.70
2019-01-18T12:41:41.446Z,5.50
2019-01-18T12:44:11.156Z,5.30
2019-01-18T12:46:40.807Z,5.00
2019-01-18T12:49:10.558Z,4.80
2019-01-18T12:51:40.287Z,4.60
2019-01-18T12:54:10.037Z,4.40
2019-01-18T12:56:39.806Z,4.30
2019-01-18T12:59:09.528Z,4.30
2019-01-18T13:01:39.231Z,4.40
2019-01-18T13:04:08.933Z,4.40
2019-01-18T13:06:38.646Z,4.40
2019-01-18T13:09:08.991Z,4.40
2019-01-18T13:11:38.713Z,4.30
2019-01-18T13:14:08.374Z,4.20
2019-01-18T13:16:41.049Z,4.30
2019-01-18T13:19:13.712Z,4.70
2019-01-18T13:21:43.489Z,4.80
2019-01-18T13:24:13.316Z,4.90
2019-01-18T13:26:43.050Z,4.80
2019-01-18T13:29:13.729Z,4.70
2019-01-18T13:31:43.464Z,4.60
2019-01-18T13:34:13.181Z,4.50
2019-01-18T13:36:42.966Z,4.40
2019-01-18T13:39:12.802Z,4.30
2019-01-18T13:41:42.525Z,4.20
2019-01-18T13:44:12.301Z,4.10
2019-01-18T13:46:42.013Z,4.10
2019-01-18T13:49:11.803Z,4.10
2019-01-18T13:51:41.514Z,4.10
2019-01-18T13:54:11.377Z,4.00
2019-01-18T13:56:41.114Z,4.00
2019-01-18T13:59:10.760Z,4.00
2019-01-18T14:01:40.478Z,4.00
2019-01-18T14:04:10.209Z,4.00
2019-01-18T14:06:39.977Z,4.00
2019-01-18T14:09:10.432Z,4.00
2019-01-18T14:11:40.242Z,4.10
2019-01-18T14:14:09.954Z,4.20
2019-01-18T14:16:39.694Z,4.30
2019-01-18T14:19:09.477Z,4.30
2019-01-18T14:21:39.261Z,4.40
2019-01-18T14:24:09.089Z,4.40
2019-01-18T14:26:38.880Z,4.30
2019-01-18T14:29:08.606Z,4.40
2019-01-18T14:31:38.350Z,4.40
2019-01-18T14:34:08.041Z,4.40
2019-01-18T14:36:37.829Z,4.40
2019-01-18T14:39:09.306Z,4.40
2019-01-18T14:41:39.025Z,4.40
2019-01-18T14:44:08.686Z,4.20
2019-01-18T14:46:38.498Z,4.20
2019-01-18T14:49:08.282Z,4.20
2019-01-18T14:51:37.979Z,4.20
2019-01-18T14:54:07.798Z,4.10
2019-01-18T14:56:37.533Z,4.10
2019-01-18T14:59:07.405Z,4.00
2019-01-18T15:01:37.610Z,4.00
2019-01-18T15:04:07.357Z,3.90
2019-01-18T15:06:37.025Z,4.00
2019-01-18T15:09:10.469Z,4.10
2019-01-18T15:11:40.260Z,4.10
2019-01-18T15:14:10.110Z,4.00
2019-01-18T15:16:39.878Z,4.00
2019-01-18T15:19:09.726Z,4.00
2019-01-18T15:21:39.461Z,4.00
2019-01-18T15:24:09.165Z,4.00
2019-01-18T15:26:38.932Z,3.90
2019-01-18T15:29:08.741Z,3.80
2019-01-18T15:31:38.451Z,3.80
2019-01-18T15:34:08.260Z,3.80
2019-01-18T15:36:38.005Z,3.80
2019-01-18T15:39:12.405Z,3.80
2019-01-18T15:41:42.914Z,3.80
2019-01-18T15:44:12.635Z,3.80
2019-01-18T15:46:42.369Z,3.80
2019-01-18T15:49:12.134Z,3.90
2019-01-18T15:51:41.881Z,3.90
2019-01-18T15:54:11.681Z,3.90
2019-01-18T15:56:42.553Z,3.80
2019-01-18T15:59:12.271Z,3.70
2019-01-18T16:01:41.941Z,3.70
2019-01-18T16:04:11.649Z,3.70
2019-01-18T16:06:41.461Z,3.60
2019-01-18T16:09:11.137Z,3.60
2019-01-18T16:11:40.875Z,3.50
2019-01-18T16:14:10.580Z,3.50
2019-01-18T16:16:50.208Z,3.50
2019-01-18T16:19:19.910Z,3.40
2019-01-18T16:21:49.581Z,3.40
2019-01-18T16:24:19.245Z,3.40
2019-01-18T16:26:48.988Z,3.40
2019-01-18T16:29:18.722Z,3.30
2019-01-18T16:31:48.371Z,3.30
2019-01-18T16:34:18.593Z,3.30
2019-01-18T16:36:48.241Z,3.20
2019-01-18T16:39:17.930Z,3.20
2019-01-18T16:41:47.617Z,3.20
2019-01-18T16:44:17.382Z,3.20
2019-01-18T16:46:47.101Z,3.20
2019-01-18T16:49:16.781Z,3.20
2019-01-18T16:51:46.583Z,3.20
2019-01-18T16:54:16.379Z,3.10
2019-01-18T16:56:46.105Z,3.10
2019-01-18T16:59:15.849Z,3.10
2019-01-18T17:01:45.581Z,3.10
2019-01-18T17:04:15.375Z,3.10
2019-01-18T17:06:44.991Z,3.00
2019-01-18T17:09:14.769Z,3.10
2019-01-18T17:11:44.566Z,3.10
2019-01-18T17:14:14.353Z,3.00
2019-01-18T17:16:45.081Z,3.00
2019-01-18T17:19:14.825Z,3.00
2019-01-18T17:21:44.571Z,3.00
2019-01-18T17:24:14.317Z,3.00
2019-01-18T17:26:44.105Z,3.10
2019-01-18T17:29:13.937Z,3.10
2019-01-18T17:31:43.641Z,3.10
2019-01-18T17:34:13.310Z,3.10
2019-01-18T17:37:03.796Z,3.10
2019-01-18T17:40:04.234Z,3.10
2019-01-18T17:43:23.678Z,3.10
2019-01-18T17:46:34.305Z,3.10
2019-01-18T17:49:43.914Z,3.00
2019-01-18T17:53:02.854Z,3.00
2019-01-18T17:56:28.705Z,3.10
2019-01-18T17:59:38.823Z,3.10
2019-01-18T18:02:58.393Z,3.10
2019-01-18T18:06:21.009Z,3.10
2019-01-18T18:09:08.765Z,3.00
2019-01-18T18:12:11.809Z,3.00
2019-01-18T18:15:01.872Z,3.00
2019-01-18T18:18:28.006Z,2.90
2019-01-18T18:21:22.308Z,2.80
2019-01-18T18:24:19.079Z,2.70
2019-01-18T18:27:25.955Z,2.60
2019-01-18T18:30:26.300Z,2.50
2019-01-18T18:33:31.901Z,2.40
2019-01-18T18:36:34.115Z,2.30
2019-01-18T18:40:05.616Z,2.30
2019-01-18T18:43:18.427Z,2.30
2019-01-18T18:46:08.887Z,2.10
2019-01-18T18:49:07.026Z,2.10
2019-01-18T18:52:12.171Z,2.10
2019-01-18T18:54:56.662Z,2.10
2019-01-18T18:58:22.893Z,2.00
2019-01-18T19:01:19.068Z,1.90
2019-01-18T19:04:17.878Z,2.00
2019-01-18T19:07:24.196Z,1.90
2019-01-18T19:10:27.866Z,1.80
2019-01-18T19:13:46.502Z,1.90
2019-01-18T19:16:42.154Z,1.90
2019-01-18T19:19:25.588Z,1.80
2019-01-18T19:22:33.525Z,1.80
2019-01-18T19:25:56.440Z,1.80
2019-01-18T19:29:11.928Z,1.70
2019-01-18T19:32:34.632Z,1.60
2019-01-18T19:35:34.517Z,1.60
2019-01-18T19:38:36.898Z,1.60
2019-01-18T19:41:23.669Z,1.60
2019-01-18T19:44:28.214Z,1.50
2019-01-18T19:47:22.087Z,1.50
2019-01-18T19:50:32.396Z,1.40
2019-01-18T19:53:17.017Z,1.30
2019-01-18T19:56:21.578Z,1.20
2019-01-18T19:59:41.035Z,1.20
2019-01-18T20:02:28.817Z,1.20
2019-01-18T20:05:52.659Z,1.20
2019-01-18T20:09:15.174Z,1.10
2019-01-18T20:11:56.845Z,1.10
2019-01-18T20:14:58.507Z,1.00
2019-01-18T20:17:58.701Z,1.00
2019-01-18T20:21:09.249Z,1.00
2019-01-18T20:24:05.201Z,1.00
2019-01-18T20:27:10.764Z,1.00
2019-01-18T20:30:26.929Z,1.00
2019-01-18T20:33:20.126Z,1.00
2019-01-18T20:36:20.352Z,1.00
2019-01-18T20:39:29.637Z,1.10
2019-01-18T20:42:38.907Z,1.00
2019-01-18T20:45:31.597Z,1.00
2019-01-18T20:48:27.550Z,1.00
2019-01-18T20:51:41.921Z,0.90
2019-01-18T20:54:48.858Z,0.90
2019-01-18T20:57:55.826Z,0.80
2019-01-18T21:00:58.770Z,0.70
2019-01-18T21:04:13.801Z,0.60
2019-01-18T21:07:30.418Z,0.50
2019-01-18T21:10:29.906Z,0.50
2019-01-18T21:13:20.512Z,0.50
2019-01-18T21:16:27.270Z,0.50
2019-01-18T21:19:41.235Z,0.50
2019-01-18T21:22:46.513Z,0.50
2019-01-18T21:25:47.726Z,0.50
2019-01-18T21:28:52.499Z,0.50
2019-01-18T21:31:43.385Z,0.50
2019-01-18T21:34:47.646Z,0.40
2019-01-18T21:37:52.882Z,0.30
2019-01-18T21:41:02.183Z,0.30
2019-01-18T21:44:14.911Z,0.30
2019-01-18T21:47:30.752Z,0.30
2019-01-18T21:50:12.425Z,0.30
2019-01-18T21:53:14.016Z,0.30
2019-01-18T21:56:19.579Z,0.30
2019-01-18T21:59:24.785Z,0.30
2019-01-18T22:02:08.997Z,0.30
2019-01-18T22:05:15.383Z,0.20
2019-01-18T22:08:08.652Z,0.30
2019-01-18T22:10:53.830Z,0.30
2019-01-18T22:14:22.529Z,0.30
2019-01-18T22:17:33.730Z,0.20
2019-01-18T22:20:56.377Z,0.10
2019-01-18T22:24:22.353Z,0.10
2019-01-18T22:27:21.053Z,0.10
2019-01-18T22:30:26.973Z,0.00
2019-01-18T22:33:26.303Z,0.00
2019-01-18T22:36:37.762Z,-0.10
2019-01-18T22:39:41.132Z,-0.10
2019-01-18T22:42:41.109Z,-0.20
2019-01-18T22:45:26.393Z,-0.20
2019-01-18T22:48:37.449Z,-0.10
2019-01-18T22:51:42.607Z,-0.10
2019-01-18T22:55:14.061Z,-0.10
2019-01-18T22:58:29.511Z,-0.10
2019-01-18T23:01:34.694Z,-0.10
2019-01-18T23:04:55.782Z,-0.10
2019-01-18T23:07:54.296Z,-0.10
2019-01-18T23:11:28.789Z,-0.20
2019-01-18T23:14:28.012Z,-0.30
2019-01-18T23:17:41.571Z,-0.40
2019-01-18T23:21:00.966Z,-0.50
2019-01-18T23:23:42.654Z,-0.50
2019-01-18T23:26:53.217Z,-0.40
2019-01-18T23:29:31.853Z,-0.50
2019-01-18T23:32:25.065Z,-0.60
2019-01-18T23:35:26.685Z,-0.60
2019-01-18T23:38:20.240Z,-0.50
2019-01-18T23:41:34.210Z,-0.50
2019-01-18T23:44:48.192Z,-0.40
2019-01-18T23:47:49.692Z,-0.40
2019-01-18T23:50:42.250Z,-0.40
2019-01-18T23:53:50.025Z,-0.30
2019-01-18T23:57:12.669Z,-0.40
